sensor_id;sensor_type;location;lat;lon;timestamp;noise_LAeq;noise_LA_min;noise_LA_max;noise_LA01;noise_LA95
67320;Laerm;57665;51.436;5.978;2024-01-11T00:00:02;67.28;39.19;77.34;;
67320;Laerm;57665;51.436;5.978;2024-01-11T00:00:12;39.85;38.10;46.05;;
67320;Laerm;57665;51.436;5.978;2024-01-11T00:00:23;39.04;37.80;40.36;;
67320;Laerm;57665;51.436;5.978;2024-01-11T00:00:33;39.09;37.49;40.68;;
67320;Laerm;57665;51.436;5.978;2024-01-11T00:00:43;38.88;37.15;39.89;;
67320;Laerm;57665;51.436;5.978;2024-01-11T00:00:53;38.86;37.58;40.13;;
67320;Laerm;57665;51.436;5.978;2024-01-11T00:01:04;38.73;37.57;39.87;;
67320;Laerm;57665;51.436;5.978;2024-01-11T00:01:14;38.79;37.65;39.87;;
67320;Laerm;57665;51.436;5.978;2024-01-11T00:01:24;38.90;37.22;40.09;;
67320;Laerm;57665;51.436;5.978;2024-01-11T00:01:34;38.58;37.18;39.68;;
67320;Laerm;57665;51.436;5.978;2024-01-11T00:01:48;38.69;37.38;40.06;;
67320;Laerm;57665;51.436;5.978;2024-01-11T00:01:58;38.64;37.52;39.95;;
67320;Laerm;57665;51.436;5.978;2024-01-11T00:02:09;38.47;37.33;39.66;;
67320;Laerm;57665;51.436;5.978;2024-01-11T00:02:19;38.63;37.58;39.77;;
67320;Laerm;57665;51.436;5.978;2024-01-11T00:02:29;38.53;37.19;39.76;;
67320;Laerm;57665;51.436;5.978;2024-01-11T00:02:40;38.57;37.32;39.71;;
67320;Laerm;57665;51.436;5.978;2024-01-11T00:02:50;38.76;37.22;39.98;;
67320;Laerm;57665;51.436;5.978;2024-01-11T00:03:00;38.79;37.60;39.97;;
67320;Laerm;57665;51.436;5.978;2024-01-11T00:03:10;38.56;37.41;39.79;;
67320;Laerm;57665;51.436;5.978;2024-01-11T00:03:21;38.68;37.25;40.31;;
67320;Laerm;57665;51.436;5.978;2024-01-11T00:03:34;38.91;37.45;40.27;;
67320;Laerm;57665;51.436;5.978;2024-01-11T00:03:44;38.50;37.17;39.96;;
67320;Laerm;57665;51.436;5.978;2024-01-11T00:03:54;38.58;37.15;39.64;;
67320;Laerm;57665;51.436;5.978;2024-01-11T00:04:05;38.43;37.17;39.69;;
67320;Laerm;57665;51.436;5.978;2024-01-11T00:04:15;38.44;37.03;39.68;;
67320;Laerm;57665;51.436;5.978;2024-01-11T00:04:25;38.74;37.24;39.82;;
67320;Laerm;57665;51.436;5.978;2024-01-11T00:04:36;38.62;37.26;39.76;;
67320;Laerm;57665;51.436;5.978;2024-01-11T00:04:46;38.65;37.34;39.86;;
67320;Laerm;57665;51.436;5.978;2024-01-11T00:04:56;38.77;37.57;40.15;;
67320;Laerm;57665;51.436;5.978;2024-01-11T00:05:06;38.62;37.38;40.20;;
67320;Laerm;57665;51.436;5.978;2024-01-11T00:05:17;38.58;37.26;39.92;;
67320;Laerm;57665;51.436;5.978;2024-01-11T00:05:27;38.70;37.29;39.95;;
67320;Laerm;57665;51.436;5.978;2024-01-11T00:05:37;38.79;37.57;39.78;;
67320;Laerm;57665;51.436;5.978;2024-01-11T00:05:48;38.48;37.33;39.90;;
67320;Laerm;57665;51.436;5.978;2024-01-11T00:06:00;38.45;37.28;39.73;;
67320;Laerm;57665;51.436;5.978;2024-01-11T00:06:10;38.56;37.31;39.83;;
67320;Laerm;57665;51.436;5.978;2024-01-11T00:06:21;38.54;37.23;39.94;;
67320;Laerm;57665;51.436;5.978;2024-01-11T00:06:31;38.74;37.36;40.07;;
67320;Laerm;57665;51.436;5.978;2024-01-11T00:06:42;38.57;37.37;39.74;;
67320;Laerm;57665;51.436;5.978;2024-01-11T00:06:52;38.66;37.13;39.98;;
67320;Laerm;57665;51.436;5.978;2024-01-11T00:07:02;38.42;37.18;39.65;;
67320;Laerm;57665;51.436;5.978;2024-01-11T00:07:13;38.62;37.61;39.70;;
67320;Laerm;57665;51.436;5.978;2024-01-11T00:07:23;38.57;37.20;39.99;;
67320;Laerm;57665;51.436;5.978;2024-01-11T00:07:33;38.70;37.61;40.04;;
67320;Laerm;57665;51.436;5.978;2024-01-11T00:07:44;38.60;37.42;39.67;;
67320;Laerm;57665;51.436;5.978;2024-01-11T00:07:54;38.51;37.39;39.56;;
67320;Laerm;57665;51.436;5.978;2024-01-11T00:08:04;38.55;37.33;39.73;;
67320;Laerm;57665;51.436;5.978;2024-01-11T00:08:15;38.59;37.54;39.68;;
67320;Laerm;57665;51.436;5.978;2024-01-11T00:08:25;38.43;37.43;39.57;;
67320;Laerm;57665;51.436;5.978;2024-01-11T00:08:35;38.70;37.49;39.75;;
67320;Laerm;57665;51.436;5.978;2024-01-11T00:08:45;38.64;37.29;40.16;;
67320;Laerm;57665;51.436;5.978;2024-01-11T00:08:55;38.77;37.25;40.01;;
67320;Laerm;57665;51.436;5.978;2024-01-11T00:09:06;38.78;37.51;40.07;;
67320;Laerm;57665;51.436;5.978;2024-01-11T00:09:16;38.74;37.25;39.89;;
67320;Laerm;57665;51.436;5.978;2024-01-11T00:09:26;38.76;37.45;40.19;;
67320;Laerm;57665;51.436;5.978;2024-01-11T00:09:40;38.73;37.56;39.75;;
67320;Laerm;57665;51.436;5.978;2024-01-11T00:09:51;38.53;37.14;39.73;;
67320;Laerm;57665;51.436;5.978;2024-01-11T00:10:02;38.67;37.36;39.66;;
67320;Laerm;57665;51.436;5.978;2024-01-11T00:10:12;38.55;37.42;39.98;;
67320;Laerm;57665;51.436;5.978;2024-01-11T00:10:22;38.45;37.12;39.65;;
67320;Laerm;57665;51.436;5.978;2024-01-11T00:10:33;38.69;37.29;39.78;;
67320;Laerm;57665;51.436;5.978;2024-01-11T00:10:43;39.01;37.83;40.14;;
67320;Laerm;57665;51.436;5.978;2024-01-11T00:10:53;39.44;37.28;43.08;;
67320;Laerm;57665;51.436;5.978;2024-01-11T00:11:03;62.94;41.97;75.01;;
67320;Laerm;57665;51.436;5.978;2024-01-11T00:11:14;39.20;37.74;42.91;;
67320;Laerm;57665;51.436;5.978;2024-01-11T00:11:24;38.51;37.25;39.84;;
67320;Laerm;57665;51.436;5.978;2024-01-11T00:11:34;38.77;37.22;40.02;;
67320;Laerm;57665;51.436;5.978;2024-01-11T00:11:44;38.76;37.68;40.47;;
67320;Laerm;57665;51.436;5.978;2024-01-11T00:11:54;38.86;37.78;39.87;;
67320;Laerm;57665;51.436;5.978;2024-01-11T00:12:05;38.40;36.83;39.36;;
67320;Laerm;57665;51.436;5.978;2024-01-11T00:12:16;38.58;37.10;39.75;;
67320;Laerm;57665;51.436;5.978;2024-01-11T00:12:26;38.32;37.28;39.36;;
67320;Laerm;57665;51.436;5.978;2024-01-11T00:12:36;38.66;37.30;39.82;;
67320;Laerm;57665;51.436;5.978;2024-01-11T00:12:46;38.69;37.76;39.97;;
67320;Laerm;57665;51.436;5.978;2024-01-11T00:12:56;38.44;37.11;39.81;;
67320;Laerm;57665;51.436;5.978;2024-01-11T00:13:07;38.73;37.06;40.20;;
67320;Laerm;57665;51.436;5.978;2024-01-11T00:13:17;38.75;37.27;40.19;;
67320;Laerm;57665;51.436;5.978;2024-01-11T00:13:27;38.60;37.51;39.74;;
67320;Laerm;57665;51.436;5.978;2024-01-11T00:13:37;38.67;37.49;39.88;;
67320;Laerm;57665;51.436;5.978;2024-01-11T00:13:47;38.64;37.24;40.04;;
67320;Laerm;57665;51.436;5.978;2024-01-11T00:13:58;38.82;37.64;39.99;;
67320;Laerm;57665;51.436;5.978;2024-01-11T00:14:08;38.73;37.36;40.26;;
67320;Laerm;57665;51.436;5.978;2024-01-11T00:14:18;38.70;37.66;45.66;;
67320;Laerm;57665;51.436;5.978;2024-01-11T00:14:28;38.66;37.49;39.76;;
67320;Laerm;57665;51.436;5.978;2024-01-11T00:14:39;38.50;37.41;39.90;;
67320;Laerm;57665;51.436;5.978;2024-01-11T00:14:50;38.42;37.13;39.89;;
67320;Laerm;57665;51.436;5.978;2024-01-11T00:15:00;38.52;37.23;39.51;;
67320;Laerm;57665;51.436;5.978;2024-01-11T00:15:10;38.81;37.39;40.24;;
67320;Laerm;57665;51.436;5.978;2024-01-11T00:15:20;40.05;37.67;44.84;;
67320;Laerm;57665;51.436;5.978;2024-01-11T00:15:31;50.73;41.35;56.88;;
67320;Laerm;57665;51.436;5.978;2024-01-11T00:15:41;46.74;39.94;54.01;;
67320;Laerm;57665;51.436;5.978;2024-01-11T00:15:51;41.30;38.90;47.09;;
67320;Laerm;57665;51.436;5.978;2024-01-11T00:16:02;39.13;37.75;40.97;;
67320;Laerm;57665;51.436;5.978;2024-01-11T00:16:12;38.74;37.64;39.97;;
67320;Laerm;57665;51.436;5.978;2024-01-11T00:16:22;38.57;37.39;39.79;;
67320;Laerm;57665;51.436;5.978;2024-01-11T00:16:33;38.45;37.31;39.91;;
67320;Laerm;57665;51.436;5.978;2024-01-11T00:16:43;38.58;37.48;39.80;;
67320;Laerm;57665;51.436;5.978;2024-01-11T00:16:53;38.74;37.69;40.18;;
67320;Laerm;57665;51.436;5.978;2024-01-11T00:17:03;38.69;37.64;39.79;;
67320;Laerm;57665;51.436;5.978;2024-01-11T00:17:14;38.75;37.60;39.84;;
67320;Laerm;57665;51.436;5.978;2024-01-11T00:17:25;38.71;37.64;39.91;;
67320;Laerm;57665;51.436;5.978;2024-01-11T00:17:36;38.68;37.30;39.76;;
67320;Laerm;57665;51.436;5.978;2024-01-11T00:17:46;38.79;37.49;39.95;;
67320;Laerm;57665;51.436;5.978;2024-01-11T00:17:56;39.49;37.50;42.22;;
67320;Laerm;57665;51.436;5.978;2024-01-11T00:18:06;42.17;37.84;47.65;;
67320;Laerm;57665;51.436;5.978;2024-01-11T00:18:17;38.85;37.81;40.16;;
67320;Laerm;57665;51.436;5.978;2024-01-11T00:18:27;38.61;37.09;40.04;;
67320;Laerm;57665;51.436;5.978;2024-01-11T00:18:38;38.67;37.59;39.85;;
67320;Laerm;57665;51.436;5.978;2024-01-11T00:18:48;38.69;37.39;40.07;;
67320;Laerm;57665;51.436;5.978;2024-01-11T00:18:59;38.43;37.25;39.69;;
67320;Laerm;57665;51.436;5.978;2024-01-11T00:19:10;38.57;37.47;39.57;;
67320;Laerm;57665;51.436;5.978;2024-01-11T00:19:20;38.52;37.57;39.69;;
67320;Laerm;57665;51.436;5.978;2024-01-11T00:19:30;38.70;37.37;39.86;;
67320;Laerm;57665;51.436;5.978;2024-01-11T00:19:41;38.59;37.59;40.02;;
67320;Laerm;57665;51.436;5.978;2024-01-11T00:19:51;38.67;37.01;39.70;;
67320;Laerm;57665;51.436;5.978;2024-01-11T00:20:02;38.63;37.62;39.83;;
67320;Laerm;57665;51.436;5.978;2024-01-11T00:20:12;38.99;37.74;40.06;;
67320;Laerm;57665;51.436;5.978;2024-01-11T00:20:23;41.71;37.66;49.64;;
67320;Laerm;57665;51.436;5.978;2024-01-11T00:20:33;65.86;40.55;78.52;;
67320;Laerm;57665;51.436;5.978;2024-01-11T00:20:43;38.91;37.38;41.69;;
67320;Laerm;57665;51.436;5.978;2024-01-11T00:20:53;38.65;37.47;39.75;;
67320;Laerm;57665;51.436;5.978;2024-01-11T00:21:03;38.48;37.34;39.72;;
67320;Laerm;57665;51.436;5.978;2024-01-11T00:21:14;38.55;37.35;39.58;;
67320;Laerm;57665;51.436;5.978;2024-01-11T00:21:24;38.70;37.45;40.24;;
67320;Laerm;57665;51.436;5.978;2024-01-11T00:21:34;38.60;37.43;39.83;;
67320;Laerm;57665;51.436;5.978;2024-01-11T00:21:45;38.55;37.04;39.77;;
67320;Laerm;57665;51.436;5.978;2024-01-11T00:21:55;38.50;37.24;39.48;;
67320;Laerm;57665;51.436;5.978;2024-01-11T00:22:05;38.59;37.15;39.81;;
67320;Laerm;57665;51.436;5.978;2024-01-11T00:22:16;38.60;37.34;40.23;;
67320;Laerm;57665;51.436;5.978;2024-01-11T00:22:26;38.56;37.40;39.77;;
67320;Laerm;57665;51.436;5.978;2024-01-11T00:22:36;38.67;37.50;39.86;;
67320;Laerm;57665;51.436;5.978;2024-01-11T00:22:46;38.61;37.34;39.71;;
67320;Laerm;57665;51.436;5.978;2024-01-11T00:22:57;38.61;37.54;39.63;;
67320;Laerm;57665;51.436;5.978;2024-01-11T00:23:07;38.67;37.25;40.02;;
67320;Laerm;57665;51.436;5.978;2024-01-11T00:23:17;38.79;37.56;40.18;;
67320;Laerm;57665;51.436;5.978;2024-01-11T00:23:27;38.71;37.59;39.96;;
67320;Laerm;57665;51.436;5.978;2024-01-11T00:23:38;38.70;37.72;39.89;;
67320;Laerm;57665;51.436;5.978;2024-01-11T00:23:48;38.62;37.21;39.75;;
67320;Laerm;57665;51.436;5.978;2024-01-11T00:23:58;38.69;37.40;39.95;;
67320;Laerm;57665;51.436;5.978;2024-01-11T00:24:09;38.84;37.70;39.83;;
67320;Laerm;57665;51.436;5.978;2024-01-11T00:24:19;38.64;37.34;39.70;;
67320;Laerm;57665;51.436;5.978;2024-01-11T00:24:29;38.79;37.48;39.87;;
67320;Laerm;57665;51.436;5.978;2024-01-11T00:24:39;38.67;37.47;39.94;;
67320;Laerm;57665;51.436;5.978;2024-01-11T00:24:50;38.60;37.29;39.79;;
67320;Laerm;57665;51.436;5.978;2024-01-11T00:25:01;38.75;37.45;39.79;;
67320;Laerm;57665;51.436;5.978;2024-01-11T00:25:11;38.62;37.35;39.77;;
67320;Laerm;57665;51.436;5.978;2024-01-11T00:25:21;38.62;37.62;39.72;;
67320;Laerm;57665;51.436;5.978;2024-01-11T00:25:31;38.79;37.51;40.24;;
67320;Laerm;57665;51.436;5.978;2024-01-11T00:25:42;38.79;37.78;40.17;;
67320;Laerm;57665;51.436;5.978;2024-01-11T00:25:52;38.77;37.76;39.78;;
67320;Laerm;57665;51.436;5.978;2024-01-11T00:26:03;38.72;36.98;39.94;;
67320;Laerm;57665;51.436;5.978;2024-01-11T00:26:13;38.73;37.56;39.81;;
67320;Laerm;57665;51.436;5.978;2024-01-11T00:26:23;38.78;37.80;40.01;;
67320;Laerm;57665;51.436;5.978;2024-01-11T00:26:34;38.74;37.75;39.95;;
67320;Laerm;57665;51.436;5.978;2024-01-11T00:26:44;38.78;37.65;39.91;;
67320;Laerm;57665;51.436;5.978;2024-01-11T00:26:54;38.70;37.60;39.80;;
67320;Laerm;57665;51.436;5.978;2024-01-11T00:27:04;38.81;37.31;39.77;;
67320;Laerm;57665;51.436;5.978;2024-01-11T00:27:15;38.82;37.79;39.85;;
67320;Laerm;57665;51.436;5.978;2024-01-11T00:27:25;38.74;37.59;39.90;;
67320;Laerm;57665;51.436;5.978;2024-01-11T00:27:35;38.73;37.44;40.71;;
67320;Laerm;57665;51.436;5.978;2024-01-11T00:27:45;38.74;37.58;39.99;;
67320;Laerm;57665;51.436;5.978;2024-01-11T00:27:55;38.89;37.77;40.27;;
67320;Laerm;57665;51.436;5.978;2024-01-11T00:28:06;38.82;37.70;40.01;;
67320;Laerm;57665;51.436;5.978;2024-01-11T00:28:16;38.67;37.56;39.90;;
67320;Laerm;57665;51.436;5.978;2024-01-11T00:28:26;38.67;37.35;39.85;;
67320;Laerm;57665;51.436;5.978;2024-01-11T00:28:36;39.19;37.45;42.01;;
67320;Laerm;57665;51.436;5.978;2024-01-11T00:28:47;40.25;38.00;43.52;;
67320;Laerm;57665;51.436;5.978;2024-01-11T00:28:57;39.06;37.38;41.63;;
67320;Laerm;57665;51.436;5.978;2024-01-11T00:29:07;38.51;37.42;39.53;;
67320;Laerm;57665;51.436;5.978;2024-01-11T00:29:17;38.66;37.58;39.77;;
67320;Laerm;57665;51.436;5.978;2024-01-11T00:29:28;39.18;37.91;40.30;;
67320;Laerm;57665;51.436;5.978;2024-01-11T00:29:38;39.00;37.73;40.37;;
67320;Laerm;57665;51.436;5.978;2024-01-11T00:29:48;39.07;37.68;40.54;;
67320;Laerm;57665;51.436;5.978;2024-01-11T00:29:59;41.08;38.20;47.66;;
67320;Laerm;57665;51.436;5.978;2024-01-11T00:30:09;69.44;46.11;77.69;;
67320;Laerm;57665;51.436;5.978;2024-01-11T00:30:19;72.03;64.10;82.04;;
67320;Laerm;57665;51.436;5.978;2024-01-11T00:30:29;72.09;65.93;82.69;;
67320;Laerm;57665;51.436;5.978;2024-01-11T00:30:40;59.64;39.85;70.76;;
67320;Laerm;57665;51.436;5.978;2024-01-11T00:30:50;40.02;38.69;41.48;;
67320;Laerm;57665;51.436;5.978;2024-01-11T00:31:00;39.44;37.98;40.67;;
67320;Laerm;57665;51.436;5.978;2024-01-11T00:31:10;40.25;38.15;49.20;;
67320;Laerm;57665;51.436;5.978;2024-01-11T00:31:20;39.10;37.88;40.20;;
67320;Laerm;57665;51.436;5.978;2024-01-11T00:31:31;38.99;37.73;40.06;;
67320;Laerm;57665;51.436;5.978;2024-01-11T00:31:41;38.92;37.65;39.95;;
67320;Laerm;57665;51.436;5.978;2024-01-11T00:31:51;39.03;37.54;40.23;;
67320;Laerm;57665;51.436;5.978;2024-01-11T00:32:02;39.17;38.03;40.48;;
67320;Laerm;57665;51.436;5.978;2024-01-11T00:32:12;39.03;37.39;40.46;;
67320;Laerm;57665;51.436;5.978;2024-01-11T00:32:22;39.03;37.90;40.24;;
67320;Laerm;57665;51.436;5.978;2024-01-11T00:32:32;39.11;37.60;40.33;;
67320;Laerm;57665;51.436;5.978;2024-01-11T00:32:42;38.82;37.50;39.97;;
67320;Laerm;57665;51.436;5.978;2024-01-11T00:32:53;38.74;37.58;39.92;;
67320;Laerm;57665;51.436;5.978;2024-01-11T00:33:03;38.83;37.24;39.93;;
67320;Laerm;57665;51.436;5.978;2024-01-11T00:33:13;38.89;37.72;40.03;;
67320;Laerm;57665;51.436;5.978;2024-01-11T00:33:23;38.68;37.35;40.02;;
67320;Laerm;57665;51.436;5.978;2024-01-11T00:33:33;38.80;37.51;40.01;;
67320;Laerm;57665;51.436;5.978;2024-01-11T00:33:44;38.97;37.89;40.11;;
67320;Laerm;57665;51.436;5.978;2024-01-11T00:33:54;39.25;38.04;40.53;;
67320;Laerm;57665;51.436;5.978;2024-01-11T00:34:04;38.89;37.63;40.25;;
67320;Laerm;57665;51.436;5.978;2024-01-11T00:34:14;38.84;37.53;40.01;;
67320;Laerm;57665;51.436;5.978;2024-01-11T00:34:25;38.80;37.64;40.21;;
67320;Laerm;57665;51.436;5.978;2024-01-11T00:34:35;38.85;37.50;40.89;;
67320;Laerm;57665;51.436;5.978;2024-01-11T00:34:46;38.72;37.54;40.06;;
67320;Laerm;57665;51.436;5.978;2024-01-11T00:34:56;38.76;37.65;40.24;;
67320;Laerm;57665;51.436;5.978;2024-01-11T00:35:06;38.80;37.26;40.03;;
67320;Laerm;57665;51.436;5.978;2024-01-11T00:35:16;38.92;37.54;40.00;;
67320;Laerm;57665;51.436;5.978;2024-01-11T00:35:27;38.92;37.66;39.98;;
67320;Laerm;57665;51.436;5.978;2024-01-11T00:35:37;38.91;37.80;40.24;;
67320;Laerm;57665;51.436;5.978;2024-01-11T00:35:47;38.86;37.25;40.27;;
67320;Laerm;57665;51.436;5.978;2024-01-11T00:35:58;38.95;37.62;40.06;;
67320;Laerm;57665;51.436;5.978;2024-01-11T00:36:08;38.83;37.77;39.79;;
67320;Laerm;57665;51.436;5.978;2024-01-11T00:36:18;38.70;37.33;39.90;;
67320;Laerm;57665;51.436;5.978;2024-01-11T00:36:31;38.68;37.38;39.81;;
67320;Laerm;57665;51.436;5.978;2024-01-11T00:36:43;38.88;37.76;39.95;;
67320;Laerm;57665;51.436;5.978;2024-01-11T00:36:53;38.92;37.24;40.23;;
67320;Laerm;57665;51.436;5.978;2024-01-11T00:37:03;38.77;37.50;39.83;;
67320;Laerm;57665;51.436;5.978;2024-01-11T00:37:14;38.89;37.63;39.94;;
67320;Laerm;57665;51.436;5.978;2024-01-11T00:37:24;38.77;37.68;39.79;;
67320;Laerm;57665;51.436;5.978;2024-01-11T00:37:35;38.78;37.49;39.81;;
67320;Laerm;57665;51.436;5.978;2024-01-11T00:37:45;38.84;37.44;39.94;;
67320;Laerm;57665;51.436;5.978;2024-01-11T00:37:55;39.02;37.65;40.03;;
67320;Laerm;57665;51.436;5.978;2024-01-11T00:38:05;38.98;37.55;40.69;;
67320;Laerm;57665;51.436;5.978;2024-01-11T00:38:16;39.06;37.88;40.50;;
67320;Laerm;57665;51.436;5.978;2024-01-11T00:38:26;49.42;38.72;58.72;;
67320;Laerm;57665;51.436;5.978;2024-01-11T00:38:36;69.96;58.81;77.27;;
67320;Laerm;57665;51.436;5.978;2024-01-11T00:38:46;71.03;67.10;78.67;;
67320;Laerm;57665;51.436;5.978;2024-01-11T00:38:57;64.81;39.82;73.10;;
67320;Laerm;57665;51.436;5.978;2024-01-11T00:39:07;39.74;38.35;41.29;;
67320;Laerm;57665;51.436;5.978;2024-01-11T00:39:17;39.15;38.01;44.12;;
67320;Laerm;57665;51.436;5.978;2024-01-11T00:39:27;39.10;37.79;40.45;;
67320;Laerm;57665;51.436;5.978;2024-01-11T00:39:39;38.99;37.70;40.12;;
67320;Laerm;57665;51.436;5.978;2024-01-11T00:39:49;38.95;37.34;40.02;;
67320;Laerm;57665;51.436;5.978;2024-01-11T00:39:59;38.83;37.70;40.14;;
67320;Laerm;57665;51.436;5.978;2024-01-11T00:40:09;38.96;37.81;40.04;;
67320;Laerm;57665;51.436;5.978;2024-01-11T00:40:20;39.04;37.82;40.32;;
67320;Laerm;57665;51.436;5.978;2024-01-11T00:40:30;38.88;37.66;40.35;;
67320;Laerm;57665;51.436;5.978;2024-01-11T00:40:40;38.78;37.46;39.92;;
67320;Laerm;57665;51.436;5.978;2024-01-11T00:40:50;38.98;37.94;39.96;;
67320;Laerm;57665;51.436;5.978;2024-01-11T00:41:01;38.98;37.38;41.79;;
67320;Laerm;57665;51.436;5.978;2024-01-11T00:41:11;38.80;37.17;39.74;;
67320;Laerm;57665;51.436;5.978;2024-01-11T00:41:21;38.71;36.95;40.02;;
67320;Laerm;57665;51.436;5.978;2024-01-11T00:41:31;39.29;37.43;52.78;;
67320;Laerm;57665;51.436;5.978;2024-01-11T00:41:42;38.76;37.48;39.88;;
67320;Laerm;57665;51.436;5.978;2024-01-11T00:41:52;38.83;37.80;40.30;;
67320;Laerm;57665;51.436;5.978;2024-01-11T00:42:02;38.74;37.44;39.67;;
67320;Laerm;57665;51.436;5.978;2024-01-11T00:42:12;38.64;37.13;39.82;;
67320;Laerm;57665;51.436;5.978;2024-01-11T00:42:23;38.63;37.31;39.93;;
67320;Laerm;57665;51.436;5.978;2024-01-11T00:42:33;38.67;37.32;40.03;;
67320;Laerm;57665;51.436;5.978;2024-01-11T00:42:44;38.67;37.55;39.85;;
67320;Laerm;57665;51.436;5.978;2024-01-11T00:42:55;38.77;37.49;39.97;;
67320;Laerm;57665;51.436;5.978;2024-01-11T00:43:05;38.85;37.75;40.28;;
67320;Laerm;57665;51.436;5.978;2024-01-11T00:43:15;38.75;37.78;40.00;;
67320;Laerm;57665;51.436;5.978;2024-01-11T00:43:25;38.69;37.62;39.78;;
67320;Laerm;57665;51.436;5.978;2024-01-11T00:43:36;38.56;37.39;39.80;;
67320;Laerm;57665;51.436;5.978;2024-01-11T00:43:46;38.66;37.66;39.87;;
67320;Laerm;57665;51.436;5.978;2024-01-11T00:43:56;38.75;37.63;39.80;;
67320;Laerm;57665;51.436;5.978;2024-01-11T00:44:06;38.88;37.87;40.29;;
67320;Laerm;57665;51.436;5.978;2024-01-11T00:44:17;38.81;37.54;39.96;;
67320;Laerm;57665;51.436;5.978;2024-01-11T00:44:27;38.85;37.85;39.89;;
67320;Laerm;57665;51.436;5.978;2024-01-11T00:44:37;38.82;37.64;39.94;;
67320;Laerm;57665;51.436;5.978;2024-01-11T00:44:48;38.73;37.35;39.88;;
67320;Laerm;57665;51.436;5.978;2024-01-11T00:44:59;38.67;37.58;39.78;;
67320;Laerm;57665;51.436;5.978;2024-01-11T00:45:09;38.86;37.82;40.14;;
67320;Laerm;57665;51.436;5.978;2024-01-11T00:45:20;38.65;37.53;39.70;;
67320;Laerm;57665;51.436;5.978;2024-01-11T00:45:30;38.83;37.58;40.06;;
67320;Laerm;57665;51.436;5.978;2024-01-11T00:45:40;38.79;37.59;39.86;;
67320;Laerm;57665;51.436;5.978;2024-01-11T00:45:50;38.76;37.66;39.89;;
67320;Laerm;57665;51.436;5.978;2024-01-11T00:46:00;38.72;37.41;39.85;;
67320;Laerm;57665;51.436;5.978;2024-01-11T00:46:11;38.66;37.53;39.93;;
67320;Laerm;57665;51.436;5.978;2024-01-11T00:46:21;38.74;37.53;39.64;;
67320;Laerm;57665;51.436;5.978;2024-01-11T00:46:31;38.83;37.84;39.73;;
67320;Laerm;57665;51.436;5.978;2024-01-11T00:46:42;38.86;36.97;39.96;;
67320;Laerm;57665;51.436;5.978;2024-01-11T00:46:52;38.83;37.69;40.01;;
67320;Laerm;57665;51.436;5.978;2024-01-11T00:47:02;38.79;37.23;39.99;;
67320;Laerm;57665;51.436;5.978;2024-01-11T00:47:13;38.77;37.73;39.88;;
67320;Laerm;57665;51.436;5.978;2024-01-11T00:47:23;38.83;37.59;39.92;;
67320;Laerm;57665;51.436;5.978;2024-01-11T00:47:33;38.85;37.47;40.40;;
67320;Laerm;57665;51.436;5.978;2024-01-11T00:47:43;38.97;37.85;40.10;;
67320;Laerm;57665;51.436;5.978;2024-01-11T00:47:53;39.22;37.80;40.28;;
67320;Laerm;57665;51.436;5.978;2024-01-11T00:48:04;38.96;37.62;40.04;;
67320;Laerm;57665;51.436;5.978;2024-01-11T00:48:14;40.34;38.10;44.52;;
67320;Laerm;57665;51.436;5.978;2024-01-11T00:48:24;70.77;44.06;79.49;;
67320;Laerm;57665;51.436;5.978;2024-01-11T00:48:35;71.12;65.81;78.59;;
67320;Laerm;57665;51.436;5.978;2024-01-11T00:48:45;71.67;50.78;80.81;;
67320;Laerm;57665;51.436;5.978;2024-01-11T00:48:58;44.02;38.74;52.34;;
67320;Laerm;57665;51.436;5.978;2024-01-11T00:49:08;39.67;38.44;40.81;;
67320;Laerm;57665;51.436;5.978;2024-01-11T00:49:18;39.21;38.01;40.47;;
67320;Laerm;57665;51.436;5.978;2024-01-11T00:49:28;39.10;37.95;42.62;;
67320;Laerm;57665;51.436;5.978;2024-01-11T00:49:38;39.12;37.86;40.33;;
67320;Laerm;57665;51.436;5.978;2024-01-11T00:49:49;39.13;37.63;40.29;;
67320;Laerm;57665;51.436;5.978;2024-01-11T00:49:59;39.14;38.03;40.23;;
67320;Laerm;57665;51.436;5.978;2024-01-11T00:50:09;39.02;37.87;40.15;;
67320;Laerm;57665;51.436;5.978;2024-01-11T00:50:19;38.93;37.70;40.17;;
67320;Laerm;57665;51.436;5.978;2024-01-11T00:50:42;39.03;37.64;39.95;;
67320;Laerm;57665;51.436;5.978;2024-01-11T00:50:52;39.03;37.85;40.36;;
67320;Laerm;57665;51.436;5.978;2024-01-11T00:51:11;38.90;37.76;39.93;;
67320;Laerm;57665;51.436;5.978;2024-01-11T00:51:21;38.85;37.31;39.91;;
67320;Laerm;57665;51.436;5.978;2024-01-11T00:51:32;38.91;37.14;40.16;;
67320;Laerm;57665;51.436;5.978;2024-01-11T00:51:42;38.85;37.57;40.00;;
67320;Laerm;57665;51.436;5.978;2024-01-11T00:51:52;39.05;37.77;40.32;;
67320;Laerm;57665;51.436;5.978;2024-01-11T00:52:02;38.95;37.75;39.91;;
67320;Laerm;57665;51.436;5.978;2024-01-11T00:52:13;38.84;37.60;39.80;;
67320;Laerm;57665;51.436;5.978;2024-01-11T00:52:23;38.94;37.46;39.98;;
67320;Laerm;57665;51.436;5.978;2024-01-11T00:52:34;38.88;37.77;39.84;;
67320;Laerm;57665;51.436;5.978;2024-01-11T00:52:44;38.89;37.57;39.96;;
67320;Laerm;57665;51.436;5.978;2024-01-11T00:52:54;38.89;37.74;39.98;;
67320;Laerm;57665;51.436;5.978;2024-01-11T00:53:04;38.97;37.53;40.11;;
67320;Laerm;57665;51.436;5.978;2024-01-11T00:53:15;39.05;37.71;40.21;;
67320;Laerm;57665;51.436;5.978;2024-01-11T00:53:25;38.89;37.59;40.07;;
67320;Laerm;57665;51.436;5.978;2024-01-11T00:53:40;38.87;37.09;40.11;;
67320;Laerm;57665;51.436;5.978;2024-01-11T00:53:50;38.99;37.82;40.08;;
67320;Laerm;57665;51.436;5.978;2024-01-11T00:54:00;38.93;37.52;40.15;;
67320;Laerm;57665;51.436;5.978;2024-01-11T00:54:11;39.00;37.88;40.23;;
67320;Laerm;57665;51.436;5.978;2024-01-11T00:54:21;38.91;37.73;40.02;;
67320;Laerm;57665;51.436;5.978;2024-01-11T00:54:31;38.82;37.45;39.94;;
67320;Laerm;57665;51.436;5.978;2024-01-11T00:54:41;38.98;37.71;40.41;;
67320;Laerm;57665;51.436;5.978;2024-01-11T00:54:52;38.77;37.42;40.10;;
67320;Laerm;57665;51.436;5.978;2024-01-11T00:55:02;38.98;37.96;40.05;;
67320;Laerm;57665;51.436;5.978;2024-01-11T00:55:12;39.03;37.83;40.11;;
67320;Laerm;57665;51.436;5.978;2024-01-11T00:55:38;38.87;37.72;39.89;;
67320;Laerm;57665;51.436;5.978;2024-01-11T00:55:48;38.92;37.28;40.66;;
67320;Laerm;57665;51.436;5.978;2024-01-11T00:55:59;39.15;37.75;40.24;;
67320;Laerm;57665;51.436;5.978;2024-01-11T00:56:16;38.96;37.81;40.05;;
67320;Laerm;57665;51.436;5.978;2024-01-11T00:56:26;38.89;37.81;40.35;;
67320;Laerm;57665;51.436;5.978;2024-01-11T00:56:45;38.95;37.62;40.12;;
67320;Laerm;57665;51.436;5.978;2024-01-11T00:56:56;38.97;37.68;39.95;;
67320;Laerm;57665;51.436;5.978;2024-01-11T00:57:09;38.78;37.62;39.79;;
67320;Laerm;57665;51.436;5.978;2024-01-11T00:57:19;39.05;37.89;40.44;;
67320;Laerm;57665;51.436;5.978;2024-01-11T00:57:29;38.92;37.53;40.35;;
67320;Laerm;57665;51.436;5.978;2024-01-11T00:57:39;38.90;37.65;40.46;;
67320;Laerm;57665;51.436;5.978;2024-01-11T00:57:50;38.88;37.64;40.18;;
67320;Laerm;57665;51.436;5.978;2024-01-11T00:58:00;38.86;37.74;40.16;;
67320;Laerm;57665;51.436;5.978;2024-01-11T00:58:11;38.90;37.59;40.09;;
67320;Laerm;57665;51.436;5.978;2024-01-11T00:58:27;38.87;37.53;40.12;;
67320;Laerm;57665;51.436;5.978;2024-01-11T00:58:38;39.01;37.91;40.27;;
67320;Laerm;57665;51.436;5.978;2024-01-11T00:58:48;38.87;37.68;39.86;;
67320;Laerm;57665;51.436;5.978;2024-01-11T00:59:07;39.03;37.58;40.26;;